createdAt,value
2022-12-25T00:01:25.011Z,8.80
2022-12-25T00:03:53.024Z,8.90
2022-12-25T00:06:20.306Z,8.90
2022-12-25T00:08:47.162Z,9.00
2022-12-25T00:11:19.487Z,8.90
2022-12-25T00:13:47.336Z,9.00
2022-12-25T00:16:22.548Z,9.00
2022-12-25T00:18:51.234Z,9.00
2022-12-25T00:21:20.319Z,9.00
2022-12-25T00:23:47.857Z,9.00
2022-12-25T00:26:17.648Z,9.00
2022-12-25T00:28:45.190Z,9.00
2022-12-25T00:31:16.407Z,9.00
2022-12-25T00:33:46.612Z,9.10
2022-12-25T00:36:16.400Z,9.10
2022-12-25T00:38:44.332Z,9.10
2022-12-25T00:41:16.058Z,9.10
2022-12-25T00:43:44.150Z,9.10
2022-12-25T00:46:13.618Z,9.20
2022-12-25T00:48:45.121Z,9.20
2022-12-25T00:51:12.183Z,9.20
2022-12-25T00:53:39.076Z,9.20
2022-12-25T00:56:07.826Z,9.20
2022-12-25T00:58:36.161Z,9.20
2022-12-25T01:01:03.629Z,9.30
2022-12-25T01:03:30.590Z,9.30
2022-12-25T01:06:07.423Z,9.30
2022-12-25T01:08:38.089Z,9.30
2022-12-25T01:11:09.096Z,9.30
2022-12-25T01:13:37.488Z,9.30
2022-12-25T01:16:11.655Z,9.30
2022-12-25T01:18:39.104Z,9.40
2022-12-25T01:21:12.311Z,9.40
2022-12-25T01:23:39.682Z,9.40
2022-12-25T01:26:09.135Z,9.40
2022-12-25T01:28:37.535Z,9.40
2022-12-25T01:31:05.464Z,9.40
2022-12-25T01:33:32.251Z,9.40
2022-12-25T01:35:59.285Z,9.40
2022-12-25T01:38:26.186Z,9.50
2022-12-25T01:40:53.063Z,9.40
2022-12-25T01:43:31.443Z,9.40
2022-12-25T01:45:59.308Z,9.40
2022-12-25T01:48:32.606Z,9.40
2022-12-25T01:51:06.164Z,9.30
2022-12-25T01:53:33.332Z,9.30
2022-12-25T01:56:07.675Z,9.30
2022-12-25T01:58:35.398Z,9.30
2022-12-25T02:01:05.487Z,9.30
2022-12-25T02:03:32.426Z,9.30
2022-12-25T02:06:01.099Z,9.30
2022-12-25T02:08:28.385Z,9.30
2022-12-25T02:10:55.277Z,9.30
2022-12-25T02:13:22.373Z,9.30
2022-12-25T02:16:15.499Z,9.30
2022-12-25T02:19:18.617Z,9.30
2022-12-25T02:22:28.757Z,9.30
2022-12-25T02:25:12.221Z,9.20
2022-12-25T02:27:53.941Z,9.30
2022-12-25T02:30:20.794Z,9.20
2022-12-25T02:33:27.695Z,9.20
2022-12-25T02:35:57.750Z,9.20
2022-12-25T02:38:38.077Z,9.30
2022-12-25T02:41:15.451Z,9.20
2022-12-25T02:44:04.628Z,9.20
2022-12-25T02:46:51.652Z,9.20
2022-12-25T02:49:53.161Z,9.20
2022-12-25T02:52:41.313Z,9.20
2022-12-25T02:55:37.060Z,9.20
2022-12-25T02:58:30.220Z,9.20
2022-12-25T03:01:26.103Z,9.20
2022-12-25T03:04:16.245Z,9.20
2022-12-25T03:07:05.900Z,9.20
2022-12-25T03:10:35.380Z,9.20
2022-12-25T03:13:12.576Z,9.30
2022-12-25T03:15:58.200Z,9.30
2022-12-25T03:18:30.373Z,9.30
2022-12-25T03:21:17.176Z,9.30
2022-12-25T03:24:21.808Z,9.40
2022-12-25T03:26:55.126Z,9.40
2022-12-25T03:29:44.127Z,9.50
2022-12-25T03:32:29.398Z,9.50
2022-12-25T03:35:23.669Z,9.50
2022-12-25T03:38:41.669Z,9.50
2022-12-25T03:42:01.782Z,9.60
2022-12-25T03:45:20.218Z,9.60
2022-12-25T03:48:10.403Z,9.60
2022-12-25T03:51:15.227Z,9.70
2022-12-25T03:54:10.254Z,9.70
2022-12-25T03:56:58.502Z,9.80
2022-12-25T03:59:43.968Z,9.70
2022-12-25T04:02:29.765Z,9.70
2022-12-25T04:05:15.452Z,9.70
2022-12-25T04:08:00.941Z,9.70
2022-12-25T04:10:46.479Z,9.70
2022-12-25T04:13:31.762Z,9.70
2022-12-25T04:16:17.384Z,9.70
2022-12-25T04:19:02.619Z,9.70
2022-12-25T04:21:48.075Z,9.70
2022-12-25T04:24:33.599Z,9.70
2022-12-25T04:27:19.064Z,9.70
2022-12-25T04:30:04.639Z,9.60
2022-12-25T04:32:49.775Z,9.60
2022-12-25T04:35:35.171Z,9.60
2022-12-25T04:38:01.952Z,9.60
2022-12-25T04:40:28.760Z,9.60
2022-12-25T04:42:55.632Z,9.60
2022-12-25T04:45:22.472Z,9.60
2022-12-25T04:47:49.328Z,9.60
2022-12-25T04:50:16.237Z,9.60
2022-12-25T04:52:43.150Z,9.50
2022-12-25T04:55:11.830Z,9.50
2022-12-25T04:57:39.149Z,9.50
2022-12-25T05:00:07.165Z,9.40
2022-12-25T05:02:34.341Z,9.40
2022-12-25T05:05:01.456Z,9.40
2022-12-25T05:07:28.246Z,9.40
2022-12-25T05:09:54.989Z,9.40
2022-12-25T05:12:21.774Z,9.40
2022-12-25T05:14:48.563Z,9.40
2022-12-25T05:17:15.441Z,9.30
2022-12-25T05:19:43.008Z,9.30
2022-12-25T05:22:10.015Z,9.30
2022-12-25T05:24:36.948Z,9.30
2022-12-25T05:27:03.877Z,9.30
2022-12-25T05:29:30.739Z,9.30
2022-12-25T05:31:57.606Z,9.30
2022-12-25T05:34:24.661Z,9.30
2022-12-25T05:36:51.620Z,9.30
2022-12-25T05:39:18.552Z,9.30
2022-12-25T05:41:45.384Z,9.30
2022-12-25T05:44:12.201Z,9.30
2022-12-25T05:46:39.114Z,9.30
2022-12-25T05:49:05.993Z,9.40
2022-12-25T05:51:33.636Z,9.40
2022-12-25T05:54:00.631Z,9.40
2022-12-25T05:56:27.497Z,9.40
2022-12-25T05:58:55.019Z,9.40
2022-12-25T06:01:26.677Z,9.40
2022-12-25T06:03:54.027Z,9.40
2022-12-25T06:06:20.968Z,9.30
2022-12-25T06:08:47.766Z,9.30
2022-12-25T06:11:15.863Z,9.30
2022-12-25T06:13:42.870Z,9.20
2022-12-25T06:16:12.107Z,9.20
2022-12-25T06:18:44.580Z,9.20
2022-12-25T06:21:13.816Z,9.10
2022-12-25T06:23:41.426Z,9.20
2022-12-25T06:26:13.416Z,9.20
2022-12-25T06:28:41.028Z,9.20
2022-12-25T06:31:15.685Z,9.20
2022-12-25T06:33:42.996Z,9.20
2022-12-25T06:36:19.635Z,9.30
2022-12-25T06:38:46.840Z,9.30
2022-12-25T06:41:17.572Z,9.30
2022-12-25T06:43:48.541Z,9.30
2022-12-25T06:46:15.881Z,9.30
2022-12-25T06:48:49.028Z,9.30
2022-12-25T06:51:18.060Z,9.30
2022-12-25T06:53:45.311Z,9.40
2022-12-25T06:56:15.856Z,9.40
2022-12-25T06:58:55.421Z,9.40
2022-12-25T07:01:41.843Z,9.40
2022-12-25T07:04:35.456Z,9.40
2022-12-25T07:07:08.311Z,9.40
2022-12-25T07:09:36.012Z,9.40
2022-12-25T07:12:08.141Z,9.40
2022-12-25T07:14:35.001Z,9.50
2022-12-25T07:17:01.874Z,9.40
2022-12-25T07:19:28.724Z,9.40
2022-12-25T07:21:55.541Z,9.50
2022-12-25T07:24:23.646Z,9.50
2022-12-25T07:26:51.689Z,9.50
2022-12-25T07:29:19.783Z,9.50
2022-12-25T07:31:47.344Z,9.50
2022-12-25T07:34:14.231Z,9.50
2022-12-25T07:36:41.059Z,9.50
2022-12-25T07:39:10.660Z,9.50
2022-12-25T07:41:37.668Z,9.50
2022-12-25T07:44:15.449Z,9.50
2022-12-25T07:46:42.898Z,9.50
2022-12-25T07:49:11.448Z,9.60
2022-12-25T07:51:38.470Z,9.60
2022-12-25T07:54:05.447Z,9.50
2022-12-25T07:56:32.259Z,9.50
2022-12-25T07:58:59.294Z,9.50
2022-12-25T08:01:27.663Z,9.50
2022-12-25T08:04:01.041Z,9.50
2022-12-25T08:06:33.687Z,9.50
2022-12-25T08:09:08.674Z,9.50
2022-12-25T08:11:36.303Z,9.50
2022-12-25T08:14:08.254Z,9.60
2022-12-25T08:16:35.695Z,9.60
2022-12-25T08:19:02.623Z,9.60
2022-12-25T08:21:29.398Z,9.70
2022-12-25T08:23:56.259Z,9.70
2022-12-25T08:26:24.048Z,9.70
2022-12-25T08:28:51.439Z,9.70
2022-12-25T08:31:24.417Z,9.60
2022-12-25T08:33:55.506Z,9.60
2022-12-25T08:36:24.073Z,9.60
2022-12-25T08:38:51.270Z,9.60
2022-12-25T08:41:19.598Z,9.60
2022-12-25T08:43:46.956Z,9.60
2022-12-25T08:46:14.403Z,9.60
2022-12-25T08:48:48.485Z,9.60
2022-12-25T08:51:19.987Z,9.70
2022-12-25T08:53:49.472Z,9.70
2022-12-25T08:56:17.076Z,9.70
2022-12-25T08:58:45.068Z,9.70
2022-12-25T09:01:13.397Z,9.60
2022-12-25T09:03:40.537Z,9.60
2022-12-25T09:06:14.563Z,9.70
2022-12-25T09:08:48.242Z,9.70
2022-12-25T09:11:19.096Z,9.70
2022-12-25T09:13:46.481Z,9.70
2022-12-25T09:16:19.236Z,9.70
2022-12-25T09:18:46.408Z,9.70
2022-12-25T09:21:16.198Z,9.70
2022-12-25T09:23:43.155Z,9.70
2022-12-25T09:26:14.527Z,9.70
2022-12-25T09:28:48.548Z,9.70
2022-12-25T09:31:18.312Z,9.80
2022-12-25T09:33:45.272Z,9.80
2022-12-25T09:36:12.471Z,9.80
2022-12-25T09:38:39.493Z,9.80
2022-12-25T09:41:38.223Z,9.80
2022-12-25T09:44:30.334Z,9.80
2022-12-25T09:47:06.630Z,9.80
2022-12-25T09:49:50.413Z,9.80
2022-12-25T09:52:45.486Z,9.90
2022-12-25T09:55:20.625Z,9.80
2022-12-25T09:57:56.108Z,9.90
2022-12-25T10:00:43.915Z,9.90
2022-12-25T10:03:53.792Z,9.90
2022-12-25T10:07:20.056Z,9.80
2022-12-25T10:10:18.524Z,9.90
2022-12-25T10:13:44.630Z,9.90
2022-12-25T10:17:03.025Z,9.90
2022-12-25T10:20:07.872Z,9.90
2022-12-25T10:22:46.481Z,9.90
2022-12-25T10:25:21.381Z,9.90
2022-12-25T10:27:55.694Z,9.90
2022-12-25T10:30:26.574Z,9.90
2022-12-25T10:32:57.274Z,9.80
2022-12-25T10:35:28.368Z,9.80
2022-12-25T10:38:12.337Z,9.80
2022-12-25T10:41:11.336Z,9.80
2022-12-25T10:43:49.417Z,9.80
2022-12-25T10:46:18.244Z,9.80
2022-12-25T10:48:56.635Z,9.80
2022-12-25T10:51:36.369Z,9.80
2022-12-25T10:54:31.464Z,9.80
2022-12-25T10:57:10.381Z,9.80
2022-12-25T10:59:45.892Z,9.80
2022-12-25T11:02:27.070Z,9.80
2022-12-25T11:05:23.441Z,9.80
2022-12-25T11:07:55.991Z,9.80
2022-12-25T11:10:31.709Z,9.80
2022-12-25T11:13:01.491Z,9.90
2022-12-25T11:15:47.625Z,9.90
2022-12-25T11:18:21.906Z,9.90
2022-12-25T11:21:02.457Z,9.90
2022-12-25T11:23:32.611Z,9.90
2022-12-25T11:26:08.363Z,9.90
2022-12-25T11:28:40.233Z,9.90
2022-12-25T11:31:15.419Z,10.00
2022-12-25T11:33:55.382Z,10.00
2022-12-25T11:36:45.388Z,10.00
2022-12-25T11:39:32.743Z,10.00
2022-12-25T11:42:14.391Z,10.00
2022-12-25T11:44:51.635Z,10.00
2022-12-25T11:47:28.361Z,10.00
2022-12-25T11:50:05.185Z,10.10
2022-12-25T11:52:42.389Z,10.10
2022-12-25T11:55:23.817Z,10.10
2022-12-25T11:57:57.397Z,10.10
2022-12-25T12:00:24.924Z,10.20
2022-12-25T12:03:09.314Z,10.20
2022-12-25T12:05:52.993Z,10.10
2022-12-25T12:08:19.809Z,10.10
2022-12-25T12:11:19.795Z,10.20
2022-12-25T12:14:18.880Z,10.10
2022-12-25T12:16:45.886Z,10.20
2022-12-25T12:19:28.819Z,10.10
2022-12-25T12:21:59.507Z,10.10
2022-12-25T12:24:43.308Z,10.20
2022-12-25T12:27:36.469Z,10.10
2022-12-25T12:30:05.398Z,10.20
2022-12-25T12:32:40.500Z,10.10
2022-12-25T12:35:23.940Z,10.20
2022-12-25T12:37:56.584Z,10.20
2022-12-25T12:40:33.765Z,10.10
2022-12-25T12:43:02.123Z,10.10
2022-12-25T12:45:37.838Z,10.10
2022-12-25T12:48:16.867Z,10.10
2022-12-25T12:50:44.235Z,10.20
2022-12-25T12:53:23.341Z,10.10
2022-12-25T12:55:51.984Z,10.10
2022-12-25T12:58:33.476Z,10.10
2022-12-25T13:01:27.852Z,10.10
2022-12-25T13:04:19.097Z,10.10
2022-12-25T13:07:11.243Z,10.10
2022-12-25T13:10:01.883Z,10.10
2022-12-25T13:12:28.970Z,10.10
2022-12-25T13:14:56.057Z,10.10
2022-12-25T13:17:26.143Z,10.10
2022-12-25T13:19:59.407Z,10.10
2022-12-25T13:22:36.435Z,10.10
2022-12-25T13:25:19.702Z,10.10
2022-12-25T13:27:55.593Z,10.10
2022-12-25T13:30:23.929Z,10.10
2022-12-25T13:32:51.177Z,10.00
2022-12-25T13:35:21.581Z,10.00
2022-12-25T13:37:48.898Z,10.00
2022-12-25T13:40:26.134Z,10.00
2022-12-25T13:43:01.962Z,10.00
2022-12-25T13:45:33.949Z,10.00
2022-12-25T13:48:15.692Z,10.00
2022-12-25T13:50:48.279Z,10.00
2022-12-25T13:53:17.760Z,10.00
2022-12-25T13:55:54.729Z,10.00
2022-12-25T13:58:30.701Z,10.00
2022-12-25T14:01:00.689Z,10.00
2022-12-25T14:03:39.670Z,10.00
2022-12-25T14:06:18.634Z,10.00
2022-12-25T14:08:47.286Z,10.00
2022-12-25T14:11:17.838Z,10.00
2022-12-25T14:13:47.933Z,10.00
2022-12-25T14:16:20.573Z,10.00
2022-12-25T14:18:58.896Z,10.10
2022-12-25T14:21:29.811Z,10.10
2022-12-25T14:23:57.275Z,10.10
2022-12-25T14:26:33.477Z,10.10
2022-12-25T14:29:11.139Z,10.10
2022-12-25T14:31:43.799Z,10.10
2022-12-25T14:34:22.862Z,10.00
2022-12-25T14:36:52.542Z,10.10
2022-12-25T14:39:36.725Z,10.10
2022-12-25T14:42:24.191Z,10.10
2022-12-25T14:45:30.232Z,10.00
2022-12-25T14:48:02.764Z,10.00
2022-12-25T14:50:39.708Z,10.00
2022-12-25T14:53:21.446Z,10.00
2022-12-25T14:55:53.917Z,10.00
2022-12-25T14:58:26.524Z,10.00
2022-12-25T15:00:57.814Z,10.00
2022-12-25T15:03:38.357Z,10.00
2022-12-25T15:06:31.937Z,10.00
2022-12-25T15:09:12.839Z,10.00
2022-12-25T15:11:39.711Z,10.00
2022-12-25T15:14:06.550Z,10.00
2022-12-25T15:16:51.100Z,10.00
2022-12-25T15:19:27.285Z,10.00
2022-12-25T15:21:57.587Z,10.00
2022-12-25T15:24:24.356Z,10.00
2022-12-25T15:26:53.277Z,10.00
2022-12-25T15:29:38.111Z,10.00
2022-12-25T15:32:17.637Z,10.10
2022-12-25T15:34:47.004Z,10.10
2022-12-25T15:37:14.539Z,10.10
2022-12-25T15:39:41.823Z,10.00
2022-12-25T15:42:14.775Z,10.00
2022-12-25T15:44:42.889Z,10.00
2022-12-25T15:47:11.880Z,10.00
2022-12-25T15:49:39.028Z,10.00
2022-12-25T15:52:11.585Z,10.00
2022-12-25T15:54:38.550Z,10.00
2022-12-25T15:57:17.970Z,10.00
2022-12-25T15:59:44.882Z,10.00
2022-12-25T16:02:18.447Z,10.10
2022-12-25T16:04:45.829Z,10.00
2022-12-25T16:07:19.363Z,10.00
2022-12-25T16:09:46.599Z,10.00
2022-12-25T16:12:13.485Z,10.10
2022-12-25T16:14:40.363Z,10.10
2022-12-25T16:17:07.772Z,10.10
2022-12-25T16:19:34.678Z,10.10
2022-12-25T16:22:01.503Z,10.00
2022-12-25T16:24:28.449Z,10.10
2022-12-25T16:26:55.197Z,10.00
2022-12-25T16:29:22.030Z,10.00
2022-12-25T16:31:48.836Z,10.00
2022-12-25T16:34:15.607Z,10.00
2022-12-25T16:36:42.478Z,10.00
2022-12-25T16:39:09.270Z,10.00
2022-12-25T16:41:36.136Z,10.00
2022-12-25T16:44:10.224Z,10.00
2022-12-25T16:46:39.581Z,10.00
2022-12-25T16:49:06.554Z,10.00
2022-12-25T16:51:33.453Z,9.90
2022-12-25T16:54:00.274Z,9.90
2022-12-25T16:56:28.367Z,10.00
2022-12-25T16:58:58.089Z,10.00
2022-12-25T17:01:25.832Z,10.00
2022-12-25T17:03:53.523Z,9.90
2022-12-25T17:06:22.838Z,10.00
2022-12-25T17:08:52.565Z,10.00
2022-12-25T17:11:24.184Z,9.90
2022-12-25T17:13:51.010Z,9.90
2022-12-25T17:16:20.763Z,10.00
2022-12-25T17:18:47.720Z,10.00
2022-12-25T17:21:14.782Z,10.00
2022-12-25T17:23:41.854Z,10.00
2022-12-25T17:26:08.808Z,9.90
2022-12-25T17:28:35.778Z,9.90
2022-12-25T17:31:09.741Z,10.00
2022-12-25T17:33:39.363Z,10.00
2022-12-25T17:36:11.836Z,10.00
2022-12-25T17:38:39.360Z,9.90
2022-12-25T17:41:10.828Z,9.90
2022-12-25T17:43:38.051Z,9.90
2022-12-25T17:46:07.975Z,10.00
2022-12-25T17:48:36.183Z,9.90
2022-12-25T17:51:10.142Z,9.90
2022-12-25T17:53:51.624Z,9.90
2022-12-25T17:56:19.679Z,9.90
2022-12-25T17:58:52.537Z,9.90
2022-12-25T18:01:22.187Z,9.90
2022-12-25T18:03:50.450Z,9.80
2022-12-25T18:06:22.945Z,9.80
2022-12-25T18:08:50.245Z,9.80
2022-12-25T18:11:24.410Z,9.80
2022-12-25T18:13:53.315Z,9.80
2022-12-25T18:16:23.385Z,9.80
2022-12-25T18:18:52.509Z,9.80
2022-12-25T18:21:22.115Z,9.80
2022-12-25T18:23:49.993Z,9.80
2022-12-25T18:26:17.938Z,9.80
2022-12-25T18:28:44.765Z,9.80
2022-12-25T18:31:16.771Z,9.80
2022-12-25T18:33:44.600Z,9.80
2022-12-25T18:36:15.648Z,9.90
2022-12-25T18:38:42.721Z,9.90
2022-12-25T18:41:10.783Z,9.80
2022-12-25T18:43:52.778Z,9.80
2022-12-25T18:46:26.697Z,9.80
2022-12-25T18:48:56.071Z,9.80
2022-12-25T18:51:23.589Z,9.90
2022-12-25T18:53:51.286Z,9.90
2022-12-25T18:56:19.895Z,9.80
2022-12-25T18:58:47.341Z,9.80
2022-12-25T19:01:21.431Z,9.80
2022-12-25T19:03:49.447Z,9.80
2022-12-25T19:06:23.453Z,9.80
2022-12-25T19:08:50.875Z,9.80
2022-12-25T19:11:19.038Z,9.80
2022-12-25T19:13:46.315Z,9.70
2022-12-25T19:16:14.482Z,9.80
2022-12-25T19:18:42.865Z,9.80
2022-12-25T19:21:10.568Z,9.80
2022-12-25T19:23:38.577Z,9.80
2022-12-25T19:26:07.915Z,9.80
2022-12-25T19:28:35.828Z,9.80
2022-12-25T19:31:04.318Z,9.80
2022-12-25T19:33:32.033Z,9.90
2022-12-25T19:36:04.595Z,9.80
2022-12-25T19:38:31.551Z,9.80
2022-12-25T19:41:01.227Z,9.80
2022-12-25T19:43:35.487Z,9.70
2022-12-25T19:46:03.797Z,9.80
2022-12-25T19:48:33.562Z,9.90
2022-12-25T19:51:00.600Z,9.90
2022-12-25T19:53:29.534Z,9.90
2022-12-25T19:56:01.621Z,9.90
2022-12-25T19:58:29.680Z,9.90
2022-12-25T20:01:00.168Z,9.90
2022-12-25T20:03:28.135Z,9.90
2022-12-25T20:05:54.988Z,9.90
2022-12-25T20:08:22.015Z,9.90
2022-12-25T20:10:49.352Z,9.90
2022-12-25T20:13:16.811Z,9.90
2022-12-25T20:15:43.672Z,9.90
2022-12-25T20:18:10.764Z,9.90
2022-12-25T20:20:37.637Z,10.00
2022-12-25T20:23:04.827Z,10.00
2022-12-25T20:25:31.825Z,10.00
2022-12-25T20:27:58.977Z,9.90
2022-12-25T20:30:26.258Z,10.00
2022-12-25T20:32:53.072Z,10.00
2022-12-25T20:35:19.872Z,10.00
2022-12-25T20:37:46.824Z,10.00
2022-12-25T20:40:13.717Z,10.00
2022-12-25T20:42:40.543Z,10.00
2022-12-25T20:45:07.684Z,10.00
2022-12-25T20:47:35.574Z,10.00
2022-12-25T20:50:02.858Z,10.00
2022-12-25T20:52:29.673Z,10.00
2022-12-25T20:54:56.465Z,10.00
2022-12-25T20:57:23.484Z,10.00
2022-12-25T20:59:50.833Z,10.00
2022-12-25T21:02:17.805Z,10.00
2022-12-25T21:05:06.863Z,10.00
2022-12-25T21:07:34.190Z,10.10
2022-12-25T21:10:00.963Z,10.10
2022-12-25T21:12:27.762Z,10.10
2022-12-25T21:14:54.572Z,10.10
2022-12-25T21:17:21.586Z,10.10
2022-12-25T21:19:49.440Z,10.10
2022-12-25T21:22:16.264Z,10.10
2022-12-25T21:24:43.238Z,10.10
2022-12-25T21:27:10.115Z,10.10
2022-12-25T21:29:37.029Z,10.10
2022-12-25T21:32:22.805Z,10.20
2022-12-25T21:34:49.560Z,10.20
2022-12-25T21:37:16.362Z,10.20
2022-12-25T21:39:43.165Z,10.20
2022-12-25T21:42:10.698Z,10.20
2022-12-25T21:44:37.499Z,10.20
2022-12-25T21:47:04.412Z,10.20
2022-12-25T21:49:49.868Z,10.20
2022-12-25T21:52:16.849Z,10.30
2022-12-25T21:54:43.837Z,10.30
2022-12-25T21:57:10.628Z,10.30
2022-12-25T21:59:37.579Z,10.30
2022-12-25T22:02:11.060Z,10.30
2022-12-25T22:04:38.745Z,10.30
2022-12-25T22:07:17.772Z,10.30
2022-12-25T22:09:50.562Z,10.30
2022-12-25T22:12:39.370Z,10.40
2022-12-25T22:15:09.941Z,10.30
2022-12-25T22:17:59.052Z,10.30
2022-12-25T22:20:28.449Z,10.30
2022-12-25T22:22:55.647Z,10.30
2022-12-25T22:25:24.151Z,10.30
2022-12-25T22:27:51.764Z,10.30
2022-12-25T22:30:26.093Z,10.30
2022-12-25T22:32:53.648Z,10.40
2022-12-25T22:35:21.225Z,10.30
2022-12-25T22:37:49.471Z,10.30
2022-12-25T22:40:19.122Z,10.30
2022-12-25T22:42:46.408Z,10.30
2022-12-25T22:45:14.137Z,10.40
2022-12-25T22:47:41.640Z,10.40
2022-12-25T22:50:10.128Z,10.30
2022-12-25T22:52:38.049Z,10.30
2022-12-25T22:55:07.711Z,10.30
2022-12-25T22:57:35.568Z,10.30
2022-12-25T23:00:02.806Z,10.30
2022-12-25T23:02:29.889Z,10.30
2022-12-25T23:04:56.726Z,10.40
2022-12-25T23:07:23.585Z,10.40
2022-12-25T23:09:52.169Z,10.40
2022-12-25T23:12:37.765Z,10.40
2022-12-25T23:15:05.311Z,10.40
2022-12-25T23:17:50.701Z,10.30
2022-12-25T23:20:36.027Z,10.30
2022-12-25T23:23:21.432Z,10.30
2022-12-25T23:26:06.773Z,10.30
2022-12-25T23:28:53.794Z,10.30
2022-12-25T23:31:28.410Z,10.30
2022-12-25T23:33:55.272Z,10.30
2022-12-25T23:36:22.319Z,10.30
2022-12-25T23:38:50.557Z,10.40
2022-12-25T23:41:17.403Z,10.30
2022-12-25T23:43:44.140Z,10.40
2022-12-25T23:46:10.974Z,10.30
2022-12-25T23:48:38.068Z,10.30
2022-12-25T23:51:07.349Z,10.30
2022-12-25T23:53:35.159Z,10.30
2022-12-25T23:56:02.284Z,10.30
2022-12-25T23:58:29.835Z,10.40
